createdAt,value
2015-09-11T00:02:47.886Z,100350
2015-09-11T00:07:50.554Z,100345
2015-09-11T00:12:53.283Z,100339
2015-09-11T00:17:55.323Z,100335
2015-09-11T00:22:57.395Z,100332
2015-09-11T00:27:59.624Z,100344
2015-09-11T00:33:01.946Z,100341
2015-09-11T00:38:04.174Z,100332
2015-09-11T00:43:06.985Z,100325
2015-09-11T00:48:08.290Z,100334
2015-09-11T00:53:11.112Z,100326
2015-09-11T00:58:14.294Z,100331
2015-09-11T01:03:17.601Z,100331
2015-09-11T01:08:19.798Z,100352
2015-09-11T01:13:22.042Z,100338
2015-09-11T01:18:25.724Z,100344
2015-09-11T01:22:23.076Z,100347
2015-09-11T01:27:25.898Z,100338
2015-09-11T01:32:27.643Z,100347
2015-09-11T01:37:31.677Z,100340
2015-09-11T01:42:33.759Z,100326
2015-09-11T01:47:35.529Z,100334
2015-09-11T01:52:38.631Z,100325
2015-09-11T01:57:41.556Z,100331
2015-09-11T02:02:43.258Z,100335
2015-09-11T02:07:45.691Z,100343
2015-09-11T02:12:48.763Z,100323
2015-09-11T02:17:49.992Z,100310
2015-09-11T02:22:54.049Z,100322
2015-09-11T02:27:55.575Z,100316
2015-09-11T02:32:57.318Z,100331
2015-09-11T02:34:43.431Z,100337
2015-09-11T02:39:47.065Z,100335
2015-09-11T02:44:48.823Z,100343
2015-09-11T02:49:51.927Z,100340
2015-09-11T02:54:54.515Z,100353
2015-09-11T02:59:56.275Z,100338
2015-09-11T03:04:58.440Z,100354
2015-09-11T03:10:01.358Z,100338
2015-09-11T03:15:02.992Z,100360
2015-09-11T03:20:05.299Z,100344
2015-09-11T03:25:07.918Z,100341
2015-09-11T03:30:13.053Z,100341
2015-09-11T03:35:13.796Z,100335
2015-09-11T03:40:16.666Z,100337
2015-09-11T03:45:18.348Z,100324
2015-09-11T03:50:20.608Z,100330
2015-09-11T03:55:22.898Z,100333
2015-09-11T04:00:24.690Z,100335
2015-09-11T04:05:27.387Z,100326
2015-09-11T04:10:29.816Z,100324
2015-09-11T04:15:32.295Z,100335
2015-09-11T04:20:33.836Z,100321
2015-09-11T04:25:36.517Z,100321
2015-09-11T04:30:39.418Z,100332
2015-09-11T04:35:41.148Z,100338
2015-09-11T04:40:43.407Z,100333
2015-09-11T04:45:45.635Z,100335
2015-09-11T04:50:47.973Z,100324
2015-09-11T04:55:51.233Z,100334
2015-09-11T05:00:52.993Z,100335
2015-09-11T05:05:57.378Z,100331
2015-09-11T05:10:59.699Z,100339
2015-09-11T05:16:01.943Z,100338
2015-09-11T05:21:04.266Z,100348
2015-09-11T05:26:06.646Z,100357
2015-09-11T05:31:08.765Z,100352
2015-09-11T05:36:11.055Z,100352
2015-09-11T05:41:12.876Z,100358
2015-09-11T05:46:16.402Z,100367
2015-09-11T05:51:17.926Z,100381
2015-09-11T05:56:20.137Z,100384
2015-09-11T06:01:22.380Z,100390
2015-09-11T06:06:24.657Z,100388
2015-09-11T06:11:26.947Z,100385
2015-09-11T06:16:29.238Z,100387
2015-09-11T06:21:31.514Z,100387
2015-09-11T06:26:33.383Z,100390
2015-09-11T06:31:36.361Z,100385
2015-09-11T06:36:39.574Z,100392
2015-09-11T06:41:40.584Z,100390
2015-09-11T06:46:42.874Z,100388
2015-09-11T06:51:46.495Z,100398
2015-09-11T06:56:47.392Z,100397
2015-09-11T07:01:49.699Z,100394
2015-09-11T07:06:51.959Z,100391
2015-09-11T07:11:54.282Z,100390
2015-09-11T07:13:16.269Z,100397
2015-09-11T07:18:19.295Z,100392
2015-09-11T07:23:20.960Z,100392
2015-09-11T07:28:23.188Z,100392
2015-09-11T07:33:26.526Z,100392
2015-09-11T07:38:28.269Z,100389
2015-09-11T07:43:30.030Z,100384
2015-09-11T07:48:32.352Z,100392
2015-09-11T07:53:34.971Z,100389
2015-09-11T07:58:37.685Z,100400
2015-09-11T08:03:39.600Z,100384
2015-09-11T08:08:41.298Z,100386
2015-09-11T08:13:45.464Z,100388
2015-09-11T08:18:46.349Z,100384
2015-09-11T08:23:48.171Z,100388
2015-09-11T08:28:50.507Z,100394
2015-09-11T08:33:53.829Z,100391
2015-09-11T08:38:55.557Z,100395
2015-09-11T08:43:57.770Z,100398
2015-09-11T08:49:00.389Z,100382
2015-09-11T08:54:02.478Z,100385
2015-09-11T08:59:04.769Z,100376
2015-09-11T09:04:07.075Z,100375
2015-09-11T09:09:09.319Z,100384
2015-09-11T09:14:12.017Z,100369
2015-09-11T09:19:13.870Z,100362
2015-09-11T09:24:15.708Z,100359
2015-09-11T09:29:18.765Z,100350
2015-09-11T09:34:21.040Z,100337
2015-09-11T09:39:23.018Z,100325
2015-09-11T09:44:25.214Z,100335
2015-09-11T09:49:27.505Z,100330
2015-09-11T09:54:29.828Z,100324
2015-09-11T09:59:32.916Z,100324
2015-09-11T10:04:34.723Z,100321
2015-09-11T10:09:38.654Z,100311
2015-09-11T10:14:40.148Z,100315
2015-09-11T10:19:42.049Z,100306
2015-09-11T10:24:44.324Z,100299
2015-09-11T10:29:46.677Z,100301
2015-09-11T10:34:48.875Z,100286
2015-09-11T10:39:51.182Z,100283
2015-09-11T10:44:53.508Z,100280
2015-09-11T10:49:56.327Z,100271
2015-09-11T10:54:58.985Z,100276
2015-09-11T11:00:01.015Z,100273
2015-09-11T11:05:02.954Z,100277
2015-09-11T11:10:05.276Z,100276
2015-09-11T11:15:08.489Z,100266
2015-09-11T11:20:10.670Z,100258
2015-09-11T11:25:12.946Z,100261
2015-09-11T11:30:15.846Z,100257
2015-09-11T11:35:19.091Z,100248
2015-09-11T11:40:19.694Z,100247
2015-09-11T11:45:22.063Z,100234
2015-09-11T11:50:24.386Z,100232
2015-09-11T11:55:26.630Z,100243
2015-09-11T12:00:28.920Z,100231
2015-09-11T12:05:31.258Z,100221
2015-09-11T12:10:33.487Z,100221
2015-09-11T12:15:36.310Z,100229
2015-09-11T12:20:40.178Z,100225
2015-09-11T12:25:41.328Z,100218
2015-09-11T12:30:43.634Z,100225
2015-09-11T12:35:45.848Z,100221
2015-09-11T12:40:48.044Z,100200
2015-09-11T12:45:50.319Z,100209
2015-09-11T12:50:52.611Z,100202
2015-09-11T12:55:54.870Z,100196
2015-09-11T13:00:56.646Z,100196
2015-09-11T13:06:00.187Z,100195
2015-09-11T13:11:03.102Z,100187
2015-09-11T13:16:04.768Z,100195
2015-09-11T13:21:06.997Z,100200
2015-09-11T13:26:09.288Z,100198
2015-09-11T13:31:11.595Z,100199
2015-09-11T13:36:13.871Z,100199
2015-09-11T13:41:16.177Z,100192
2015-09-11T13:46:17.983Z,100182
2015-09-11T13:51:21.773Z,100182
2015-09-11T13:56:22.970Z,100177
2015-09-11T14:01:25.777Z,100177
2015-09-11T14:06:27.490Z,100176
2015-09-11T14:11:29.782Z,100169
2015-09-11T14:16:32.056Z,100169
2015-09-11T14:21:34.347Z,100169
2015-09-11T14:26:36.639Z,100169
2015-09-11T14:31:38.773Z,100179
2015-09-11T14:36:42.752Z,100176
2015-09-11T14:41:44.371Z,100183
2015-09-11T14:46:46.662Z,100179
2015-09-11T14:51:49.015Z,100161
2015-09-11T14:56:51.290Z,100163
2015-09-11T15:01:53.550Z,100164
2015-09-11T15:06:55.826Z,100166
2015-09-11T15:11:58.130Z,100153
2015-09-11T15:16:59.953Z,100154
2015-09-11T15:22:03.119Z,100153
2015-09-11T15:27:05.927Z,100153
2015-09-11T15:32:07.279Z,100147
2015-09-11T15:37:09.555Z,100151
2015-09-11T15:42:11.846Z,100148
2015-09-11T15:47:14.090Z,100153
2015-09-11T15:52:16.434Z,100156
2015-09-11T15:57:18.458Z,100156
2015-09-11T16:02:20.515Z,100148
2015-09-11T16:07:23.197Z,100157
2015-09-11T16:12:25.425Z,100151
2015-09-11T16:17:27.700Z,100160
2015-09-11T16:22:29.958Z,100164
2015-09-11T16:27:32.330Z,100167
2015-09-11T16:32:34.525Z,100165
2015-09-11T16:37:36.815Z,100159
2015-09-11T16:42:38.638Z,100176
2015-09-11T16:47:42.772Z,100169
2015-09-11T16:52:43.674Z,100170
2015-09-11T16:57:46.043Z,100163
2015-09-11T17:02:47.803Z,100162
2015-09-11T17:07:50.546Z,100162
2015-09-11T17:12:52.853Z,100154
2015-09-11T17:17:55.973Z,100160
2015-09-11T17:22:58.701Z,100160
2015-09-11T17:28:00.071Z,100163
2015-09-11T17:33:02.783Z,100166
2015-09-11T17:38:05.668Z,100162
2015-09-11T17:43:07.349Z,100153
2015-09-11T17:48:09.703Z,100160
2015-09-11T17:53:11.852Z,100166
2015-09-11T17:58:14.580Z,100169
2015-09-11T18:03:16.418Z,100176
2015-09-11T18:08:18.475Z,100179
2015-09-11T18:13:22.328Z,100178
2015-09-11T18:18:23.181Z,100185
2015-09-11T18:23:25.066Z,100191
2015-09-11T18:28:27.858Z,100203
2015-09-11T18:33:30.758Z,100207
2015-09-11T18:38:32.362Z,100207
2015-09-11T18:43:34.638Z,100204
2015-09-11T18:48:36.865Z,100217
2015-09-11T18:53:39.705Z,100219
2015-09-11T18:58:41.465Z,100225
2015-09-11T19:03:44.990Z,100226
2015-09-11T19:08:47.313Z,100226
2015-09-11T19:13:48.352Z,100231
2015-09-11T19:18:50.626Z,100219
2015-09-11T19:23:54.294Z,100229
2015-09-11T19:28:55.194Z,100229
2015-09-11T19:33:57.845Z,100223
2015-09-11T19:38:59.807Z,100228
2015-09-11T19:44:01.583Z,100235
2015-09-11T19:49:05.577Z,100228
2015-09-11T19:54:07.157Z,100223
2015-09-11T19:59:09.814Z,100225
2015-09-11T20:04:12.333Z,100225
2015-09-11T20:09:14.586Z,100228
2015-09-11T20:14:16.956Z,100233
2015-09-11T20:19:19.170Z,100232
2015-09-11T20:24:21.462Z,100233
2015-09-11T20:29:23.268Z,100226
2015-09-11T20:34:27.824Z,100226
2015-09-11T20:39:29.085Z,100223
2015-09-11T20:44:31.516Z,100223
2015-09-11T20:49:33.714Z,100226
2015-09-11T20:54:36.816Z,100226
2015-09-11T20:59:39.107Z,100223
2015-09-11T21:04:42.210Z,100219
2015-09-11T21:09:43.985Z,100223
2015-09-11T21:14:47.839Z,100226
2015-09-11T21:19:48.944Z,100222
2015-09-11T21:24:51.265Z,100225
2015-09-11T21:29:53.526Z,100227
2015-09-11T21:34:55.940Z,100211
2015-09-11T21:39:58.215Z,100225
2015-09-11T21:45:00.397Z,100211
2015-09-11T21:50:02.704Z,100217
2015-09-11T21:55:05.058Z,100213
2015-09-11T22:00:08.568Z,100214
2015-09-11T22:05:10.484Z,100207
2015-09-11T22:10:12.838Z,100202
2015-09-11T22:15:15.018Z,100199
2015-09-11T22:20:17.324Z,100194
2015-09-11T22:25:19.616Z,100204
2015-09-11T22:30:21.796Z,100182
2015-09-11T22:35:24.072Z,100180
2015-09-11T22:40:25.895Z,100194
2015-09-11T22:45:29.748Z,100198
2015-09-11T22:50:30.915Z,100185
2015-09-11T22:55:33.737Z,100189
2015-09-11T23:00:35.480Z,100179
2015-09-11T23:05:37.755Z,100182
2015-09-11T23:10:40.110Z,100172
2015-09-11T23:15:41.916Z,100170
2015-09-11T23:20:44.644Z,100161
2015-09-11T23:25:46.514Z,100173
2015-09-11T23:30:41.397Z,100175
2015-09-11T23:35:44.282Z,100172
2015-09-11T23:40:46.072Z,100163
2015-09-11T23:45:49.614Z,100173
2015-09-11T23:50:51.998Z,100158
2015-09-11T23:55:54.135Z,100154
